sensor_id;sensor_type;location;lat;lon;timestamp;P1;durP1;ratioP1;P2;durP2;ratioP2
23782;SDS011;12071;50.850;4.446;2024-02-26T00:01:39;4.20;;;1.42;;
23782;SDS011;12071;50.850;4.446;2024-02-26T00:04:05;2.72;;;1.38;;
23782;SDS011;12071;50.850;4.446;2024-02-26T00:06:31;3.45;;;1.50;;
23782;SDS011;12071;50.850;4.446;2024-02-26T00:08:57;5.07;;;1.50;;
23782;SDS011;12071;50.850;4.446;2024-02-26T00:11:22;3.88;;;1.58;;
23782;SDS011;12071;50.850;4.446;2024-02-26T00:13:48;2.65;;;1.30;;
23782;SDS011;12071;50.850;4.446;2024-02-26T00:16:14;5.63;;;1.73;;
23782;SDS011;12071;50.850;4.446;2024-02-26T00:18:40;3.38;;;1.45;;
23782;SDS011;12071;50.850;4.446;2024-02-26T00:21:05;3.95;;;1.63;;
23782;SDS011;12071;50.850;4.446;2024-02-26T00:23:31;3.88;;;1.05;;
23782;SDS011;12071;50.850;4.446;2024-02-26T00:25:57;2.05;;;1.15;;
23782;SDS011;12071;50.850;4.446;2024-02-26T00:28:24;3.72;;;1.50;;
23782;SDS011;12071;50.850;4.446;2024-02-26T00:30:50;4.82;;;1.63;;
23782;SDS011;12071;50.850;4.446;2024-02-26T00:33:21;1.98;;;1.10;;
23782;SDS011;12071;50.850;4.446;2024-02-26T00:35:47;3.10;;;1.40;;
23782;SDS011;12071;50.850;4.446;2024-02-26T00:38:13;1.95;;;1.20;;
23782;SDS011;12071;50.850;4.446;2024-02-26T00:40:39;4.13;;;1.65;;
23782;SDS011;12071;50.850;4.446;2024-02-26T00:43:05;1.75;;;1.42;;
23782;SDS011;12071;50.850;4.446;2024-02-26T00:45:31;3.20;;;1.33;;
23782;SDS011;12071;50.850;4.446;2024-02-26T00:47:57;3.75;;;1.58;;
23782;SDS011;12071;50.850;4.446;2024-02-26T00:50:23;1.98;;;1.45;;
23782;SDS011;12071;50.850;4.446;2024-02-26T00:52:50;4.93;;;1.45;;
23782;SDS011;12071;50.850;4.446;2024-02-26T00:55:22;3.00;;;1.23;;
23782;SDS011;12071;50.850;4.446;2024-02-26T00:57:49;3.05;;;1.20;;
23782;SDS011;12071;50.850;4.446;2024-02-26T01:00:15;2.17;;;1.38;;
23782;SDS011;12071;50.850;4.446;2024-02-26T01:02:41;3.13;;;1.23;;
23782;SDS011;12071;50.850;4.446;2024-02-26T01:05:07;3.58;;;1.30;;
23782;SDS011;12071;50.850;4.446;2024-02-26T01:07:34;2.33;;;1.30;;
23782;SDS011;12071;50.850;4.446;2024-02-26T01:10:01;1.02;;;0.90;;
23782;SDS011;12071;50.850;4.446;2024-02-26T01:12:27;2.75;;;1.50;;
23782;SDS011;12071;50.850;4.446;2024-02-26T01:14:53;2.78;;;1.35;;
23782;SDS011;12071;50.850;4.446;2024-02-26T01:17:19;1.77;;;1.23;;
23782;SDS011;12071;50.850;4.446;2024-02-26T01:19:45;2.10;;;1.20;;
23782;SDS011;12071;50.850;4.446;2024-02-26T01:22:10;4.15;;;1.33;;
23782;SDS011;12071;50.850;4.446;2024-02-26T01:24:36;1.83;;;1.10;;
23782;SDS011;12071;50.850;4.446;2024-02-26T01:27:02;2.45;;;1.40;;
23782;SDS011;12071;50.850;4.446;2024-02-26T01:29:27;2.67;;;1.30;;
23782;SDS011;12071;50.850;4.446;2024-02-26T01:31:53;1.60;;;1.20;;
23782;SDS011;12071;50.850;4.446;2024-02-26T01:34:20;2.03;;;1.00;;
23782;SDS011;12071;50.850;4.446;2024-02-26T01:36:45;2.15;;;1.10;;
23782;SDS011;12071;50.850;4.446;2024-02-26T01:39:11;1.98;;;1.15;;
23782;SDS011;12071;50.850;4.446;2024-02-26T01:41:38;1.40;;;1.10;;
23782;SDS011;12071;50.850;4.446;2024-02-26T01:44:04;4.47;;;1.20;;
23782;SDS011;12071;50.850;4.446;2024-02-26T01:46:35;2.78;;;1.05;;
23782;SDS011;12071;50.850;4.446;2024-02-26T01:49:03;1.75;;;0.95;;
23782;SDS011;12071;50.850;4.446;2024-02-26T01:51:29;4.70;;;1.30;;
23782;SDS011;12071;50.850;4.446;2024-02-26T01:53:57;1.83;;;1.10;;
23782;SDS011;12071;50.850;4.446;2024-02-26T01:56:25;3.28;;;1.02;;
23782;SDS011;12071;50.850;4.446;2024-02-26T01:58:55;1.83;;;1.23;;
23782;SDS011;12071;50.850;4.446;2024-02-26T02:01:22;2.15;;;0.90;;
23782;SDS011;12071;50.850;4.446;2024-02-26T02:03:52;2.03;;;0.90;;
23782;SDS011;12071;50.850;4.446;2024-02-26T02:06:19;2.80;;;1.00;;
23782;SDS011;12071;50.850;4.446;2024-02-26T02:08:45;2.65;;;1.15;;
23782;SDS011;12071;50.850;4.446;2024-02-26T02:11:11;3.38;;;1.20;;
23782;SDS011;12071;50.850;4.446;2024-02-26T02:13:37;2.58;;;1.13;;
23782;SDS011;12071;50.850;4.446;2024-02-26T02:16:03;1.38;;;0.98;;
23782;SDS011;12071;50.850;4.446;2024-02-26T02:18:30;2.65;;;0.98;;
23782;SDS011;12071;50.850;4.446;2024-02-26T02:20:56;2.22;;;1.00;;
23782;SDS011;12071;50.850;4.446;2024-02-26T02:23:25;1.65;;;1.00;;
23782;SDS011;12071;50.850;4.446;2024-02-26T02:25:50;6.43;;;1.13;;
23782;SDS011;12071;50.850;4.446;2024-02-26T02:28:16;2.78;;;0.85;;
23782;SDS011;12071;50.850;4.446;2024-02-26T02:30:42;2.45;;;0.90;;
23782;SDS011;12071;50.850;4.446;2024-02-26T02:33:08;3.92;;;0.95;;
23782;SDS011;12071;50.850;4.446;2024-02-26T02:35:34;1.50;;;0.90;;
23782;SDS011;12071;50.850;4.446;2024-02-26T02:38:00;2.42;;;1.15;;
23782;SDS011;12071;50.850;4.446;2024-02-26T02:40:25;3.20;;;1.08;;
23782;SDS011;12071;50.850;4.446;2024-02-26T02:42:51;3.63;;;1.10;;
23782;SDS011;12071;50.850;4.446;2024-02-26T02:45:17;3.30;;;1.08;;
23782;SDS011;12071;50.850;4.446;2024-02-26T02:47:42;1.48;;;0.85;;
23782;SDS011;12071;50.850;4.446;2024-02-26T02:50:08;1.92;;;1.17;;
23782;SDS011;12071;50.850;4.446;2024-02-26T02:52:34;2.50;;;0.98;;
23782;SDS011;12071;50.850;4.446;2024-02-26T02:55:00;1.60;;;1.02;;
23782;SDS011;12071;50.850;4.446;2024-02-26T02:57:27;1.67;;;0.80;;
23782;SDS011;12071;50.850;4.446;2024-02-26T02:59:54;2.08;;;1.02;;
23782;SDS011;12071;50.850;4.446;2024-02-26T03:02:20;1.80;;;0.82;;
23782;SDS011;12071;50.850;4.446;2024-02-26T03:04:45;4.65;;;1.17;;
23782;SDS011;12071;50.850;4.446;2024-02-26T03:07:11;2.97;;;1.50;;
23782;SDS011;12071;50.850;4.446;2024-02-26T03:09:37;3.42;;;1.23;;
23782;SDS011;12071;50.850;4.446;2024-02-26T03:12:03;2.03;;;1.33;;
23782;SDS011;12071;50.850;4.446;2024-02-26T03:14:29;2.53;;;1.52;;
23782;SDS011;12071;50.850;4.446;2024-02-26T03:16:55;2.38;;;1.30;;
23782;SDS011;12071;50.850;4.446;2024-02-26T03:19:21;2.08;;;1.20;;
23782;SDS011;12071;50.850;4.446;2024-02-26T03:21:46;2.20;;;1.20;;
23782;SDS011;12071;50.850;4.446;2024-02-26T03:24:12;2.53;;;1.40;;
23782;SDS011;12071;50.850;4.446;2024-02-26T03:26:38;1.73;;;1.20;;
23782;SDS011;12071;50.850;4.446;2024-02-26T03:29:04;3.50;;;1.40;;
23782;SDS011;12071;50.850;4.446;2024-02-26T03:31:30;4.05;;;1.38;;
23782;SDS011;12071;50.850;4.446;2024-02-26T03:33:55;2.03;;;1.30;;
23782;SDS011;12071;50.850;4.446;2024-02-26T03:36:21;2.30;;;1.33;;
23782;SDS011;12071;50.850;4.446;2024-02-26T03:38:47;1.40;;;1.20;;
23782;SDS011;12071;50.850;4.446;2024-02-26T03:41:13;3.90;;;1.35;;
23782;SDS011;12071;50.850;4.446;2024-02-26T03:43:39;2.85;;;1.40;;
23782;SDS011;12071;50.850;4.446;2024-02-26T03:46:08;1.42;;;1.25;;
23782;SDS011;12071;50.850;4.446;2024-02-26T03:48:34;2.17;;;1.40;;
23782;SDS011;12071;50.850;4.446;2024-02-26T03:51:00;2.60;;;1.10;;
23782;SDS011;12071;50.850;4.446;2024-02-26T03:53:26;1.98;;;1.00;;
23782;SDS011;12071;50.850;4.446;2024-02-26T03:55:51;1.83;;;1.42;;
23782;SDS011;12071;50.850;4.446;2024-02-26T03:58:18;2.20;;;1.30;;
23782;SDS011;12071;50.850;4.446;2024-02-26T04:00:44;1.88;;;1.25;;
23782;SDS011;12071;50.850;4.446;2024-02-26T04:03:12;2.10;;;1.20;;
23782;SDS011;12071;50.850;4.446;2024-02-26T04:05:38;3.08;;;2.20;;
23782;SDS011;12071;50.850;4.446;2024-02-26T04:08:04;2.55;;;1.50;;
23782;SDS011;12071;50.850;4.446;2024-02-26T04:10:32;3.45;;;1.60;;
23782;SDS011;12071;50.850;4.446;2024-02-26T04:13:03;3.47;;;2.17;;
23782;SDS011;12071;50.850;4.446;2024-02-26T04:15:29;3.45;;;2.13;;
23782;SDS011;12071;50.850;4.446;2024-02-26T04:17:55;4.78;;;2.20;;
23782;SDS011;12071;50.850;4.446;2024-02-26T04:20:21;3.78;;;2.45;;
23782;SDS011;12071;50.850;4.446;2024-02-26T04:22:47;3.30;;;2.75;;
23782;SDS011;12071;50.850;4.446;2024-02-26T04:25:12;3.17;;;2.85;;
23782;SDS011;12071;50.850;4.446;2024-02-26T04:27:38;3.17;;;2.88;;
23782;SDS011;12071;50.850;4.446;2024-02-26T04:30:05;3.72;;;2.75;;
23782;SDS011;12071;50.850;4.446;2024-02-26T04:32:31;3.30;;;2.97;;
23782;SDS011;12071;50.850;4.446;2024-02-26T04:34:57;5.10;;;3.45;;
23782;SDS011;12071;50.850;4.446;2024-02-26T04:37:23;5.00;;;3.50;;
23782;SDS011;12071;50.850;4.446;2024-02-26T04:39:48;7.13;;;3.60;;
23782;SDS011;12071;50.850;4.446;2024-02-26T04:42:14;6.75;;;3.63;;
23782;SDS011;12071;50.850;4.446;2024-02-26T04:44:39;5.53;;;3.70;;
23782;SDS011;12071;50.850;4.446;2024-02-26T04:47:05;5.95;;;3.72;;
23782;SDS011;12071;50.850;4.446;2024-02-26T04:49:32;5.38;;;3.70;;
23782;SDS011;12071;50.850;4.446;2024-02-26T04:51:59;6.20;;;3.40;;
23782;SDS011;12071;50.850;4.446;2024-02-26T04:54:25;4.60;;;3.67;;
23782;SDS011;12071;50.850;4.446;2024-02-26T04:56:51;4.93;;;4.15;;
23782;SDS011;12071;50.850;4.446;2024-02-26T04:59:16;7.60;;;4.70;;
23782;SDS011;12071;50.850;4.446;2024-02-26T05:01:42;6.07;;;4.70;;
23782;SDS011;12071;50.850;4.446;2024-02-26T05:04:08;6.28;;;4.95;;
23782;SDS011;12071;50.850;4.446;2024-02-26T05:06:33;6.20;;;5.20;;
23782;SDS011;12071;50.850;4.446;2024-02-26T05:09:01;7.63;;;5.57;;
23782;SDS011;12071;50.850;4.446;2024-02-26T05:11:28;9.27;;;5.93;;
23782;SDS011;12071;50.850;4.446;2024-02-26T05:13:54;9.48;;;6.50;;
23782;SDS011;12071;50.850;4.446;2024-02-26T05:16:19;8.10;;;6.10;;
23782;SDS011;12071;50.850;4.446;2024-02-26T05:18:49;8.95;;;6.43;;
23782;SDS011;12071;50.850;4.446;2024-02-26T05:21:15;8.52;;;6.95;;
23782;SDS011;12071;50.850;4.446;2024-02-26T05:23:40;12.10;;;6.60;;
23782;SDS011;12071;50.850;4.446;2024-02-26T05:26:09;9.02;;;6.97;;
23782;SDS011;12071;50.850;4.446;2024-02-26T05:28:34;9.20;;;7.40;;
23782;SDS011;12071;50.850;4.446;2024-02-26T05:31:01;10.50;;;7.97;;
23782;SDS011;12071;50.850;4.446;2024-02-26T05:33:28;9.68;;;7.95;;
23782;SDS011;12071;50.850;4.446;2024-02-26T05:35:54;11.18;;;8.57;;
23782;SDS011;12071;50.850;4.446;2024-02-26T05:38:19;13.38;;;9.60;;
23782;SDS011;12071;50.850;4.446;2024-02-26T05:40:45;11.90;;;9.75;;
23782;SDS011;12071;50.850;4.446;2024-02-26T05:43:11;13.80;;;10.80;;
23782;SDS011;12071;50.850;4.446;2024-02-26T05:45:40;15.18;;;11.70;;
23782;SDS011;12071;50.850;4.446;2024-02-26T05:48:06;16.13;;;11.93;;
23782;SDS011;12071;50.850;4.446;2024-02-26T05:50:32;16.80;;;12.82;;
23782;SDS011;12071;50.850;4.446;2024-02-26T05:52:58;15.27;;;12.82;;
23782;SDS011;12071;50.850;4.446;2024-02-26T05:55:24;18.40;;;13.50;;
23782;SDS011;12071;50.850;4.446;2024-02-26T05:57:51;19.45;;;13.85;;
23782;SDS011;12071;50.850;4.446;2024-02-26T06:00:16;15.85;;;13.40;;
23782;SDS011;12071;50.850;4.446;2024-02-26T06:02:42;17.30;;;13.63;;
23782;SDS011;12071;50.850;4.446;2024-02-26T06:05:09;19.33;;;13.73;;
23782;SDS011;12071;50.850;4.446;2024-02-26T06:07:35;18.02;;;13.27;;
23782;SDS011;12071;50.850;4.446;2024-02-26T06:10:01;17.35;;;13.57;;
23782;SDS011;12071;50.850;4.446;2024-02-26T06:12:27;17.42;;;13.88;;
23782;SDS011;12071;50.850;4.446;2024-02-26T06:14:55;17.15;;;13.30;;
23782;SDS011;12071;50.850;4.446;2024-02-26T06:17:21;18.08;;;14.90;;
23782;SDS011;12071;50.850;4.446;2024-02-26T06:19:48;17.17;;;13.82;;
23782;SDS011;12071;50.850;4.446;2024-02-26T06:22:14;19.45;;;14.27;;
23782;SDS011;12071;50.850;4.446;2024-02-26T06:24:42;17.60;;;13.68;;
23782;SDS011;12071;50.850;4.446;2024-02-26T06:27:08;18.40;;;15.30;;
23782;SDS011;12071;50.850;4.446;2024-02-26T06:29:36;20.15;;;14.27;;
23782;SDS011;12071;50.850;4.446;2024-02-26T06:32:02;20.38;;;14.82;;
23782;SDS011;12071;50.850;4.446;2024-02-26T06:34:30;17.33;;;14.13;;
23782;SDS011;12071;50.850;4.446;2024-02-26T06:36:59;17.63;;;14.55;;
23782;SDS011;12071;50.850;4.446;2024-02-26T06:39:24;17.65;;;14.07;;
23782;SDS011;12071;50.850;4.446;2024-02-26T06:41:50;16.10;;;13.95;;
23782;SDS011;12071;50.850;4.446;2024-02-26T06:44:20;15.43;;;13.70;;
23782;SDS011;12071;50.850;4.446;2024-02-26T06:46:45;16.27;;;14.40;;
23782;SDS011;12071;50.850;4.446;2024-02-26T06:49:11;16.17;;;13.45;;
23782;SDS011;12071;50.850;4.446;2024-02-26T06:51:38;16.65;;;14.40;;
23782;SDS011;12071;50.850;4.446;2024-02-26T06:54:04;17.00;;;14.27;;
23782;SDS011;12071;50.850;4.446;2024-02-26T06:56:29;18.42;;;15.02;;
23782;SDS011;12071;50.850;4.446;2024-02-26T06:58:56;18.05;;;14.02;;
23782;SDS011;12071;50.850;4.446;2024-02-26T07:01:22;19.05;;;14.95;;
23782;SDS011;12071;50.850;4.446;2024-02-26T07:03:48;17.33;;;15.00;;
23782;SDS011;12071;50.850;4.446;2024-02-26T07:06:14;16.73;;;14.65;;
23782;SDS011;12071;50.850;4.446;2024-02-26T07:08:40;17.08;;;15.38;;
23782;SDS011;12071;50.850;4.446;2024-02-26T07:11:08;19.92;;;16.10;;
23782;SDS011;12071;50.850;4.446;2024-02-26T07:13:35;16.65;;;14.85;;
23782;SDS011;12071;50.850;4.446;2024-02-26T07:16:00;19.77;;;15.38;;
23782;SDS011;12071;50.850;4.446;2024-02-26T07:18:26;19.33;;;15.98;;
23782;SDS011;12071;50.850;4.446;2024-02-26T07:20:53;15.93;;;14.30;;
23782;SDS011;12071;50.850;4.446;2024-02-26T07:23:19;18.55;;;15.25;;
23782;SDS011;12071;50.850;4.446;2024-02-26T07:25:44;17.77;;;15.13;;
23782;SDS011;12071;50.850;4.446;2024-02-26T07:28:12;19.15;;;14.68;;
23782;SDS011;12071;50.850;4.446;2024-02-26T07:30:37;17.73;;;14.85;;
23782;SDS011;12071;50.850;4.446;2024-02-26T07:33:03;19.42;;;16.15;;
23782;SDS011;12071;50.850;4.446;2024-02-26T07:35:29;18.63;;;15.13;;
23782;SDS011;12071;50.850;4.446;2024-02-26T07:37:54;16.42;;;14.68;;
23782;SDS011;12071;50.850;4.446;2024-02-26T07:40:20;18.77;;;14.98;;
23782;SDS011;12071;50.850;4.446;2024-02-26T07:42:45;17.10;;;14.55;;
23782;SDS011;12071;50.850;4.446;2024-02-26T07:45:11;17.45;;;14.15;;
23782;SDS011;12071;50.850;4.446;2024-02-26T07:47:38;15.93;;;14.23;;
23782;SDS011;12071;50.850;4.446;2024-02-26T07:50:06;15.68;;;13.75;;
23782;SDS011;12071;50.850;4.446;2024-02-26T07:52:37;17.00;;;14.07;;
23782;SDS011;12071;50.850;4.446;2024-02-26T07:55:03;16.95;;;14.32;;
23782;SDS011;12071;50.850;4.446;2024-02-26T07:57:29;16.10;;;14.32;;
23782;SDS011;12071;50.850;4.446;2024-02-26T07:59:55;20.08;;;15.07;;
23782;SDS011;12071;50.850;4.446;2024-02-26T08:02:20;17.42;;;14.20;;
23782;SDS011;12071;50.850;4.446;2024-02-26T08:04:47;14.68;;;12.90;;
23782;SDS011;12071;50.850;4.446;2024-02-26T08:07:12;14.30;;;12.80;;
23782;SDS011;12071;50.850;4.446;2024-02-26T08:09:38;15.40;;;12.43;;
23782;SDS011;12071;50.850;4.446;2024-02-26T08:12:04;15.20;;;12.93;;
23782;SDS011;12071;50.850;4.446;2024-02-26T08:14:30;14.80;;;13.30;;
23782;SDS011;12071;50.850;4.446;2024-02-26T08:16:58;13.48;;;12.15;;
23782;SDS011;12071;50.850;4.446;2024-02-26T08:19:24;14.25;;;12.75;;
23782;SDS011;12071;50.850;4.446;2024-02-26T08:21:50;13.73;;;11.75;;
23782;SDS011;12071;50.850;4.446;2024-02-26T08:24:18;13.52;;;12.10;;
23782;SDS011;12071;50.850;4.446;2024-02-26T08:26:44;13.85;;;12.18;;
23782;SDS011;12071;50.850;4.446;2024-02-26T08:29:10;12.88;;;11.68;;
23782;SDS011;12071;50.850;4.446;2024-02-26T08:31:36;14.13;;;11.25;;
23782;SDS011;12071;50.850;4.446;2024-02-26T08:34:03;13.50;;;12.10;;
23782;SDS011;12071;50.850;4.446;2024-02-26T08:36:33;14.55;;;12.77;;
23782;SDS011;12071;50.850;4.446;2024-02-26T08:38:59;13.73;;;12.32;;
23782;SDS011;12071;50.850;4.446;2024-02-26T08:41:25;13.75;;;12.30;;
23782;SDS011;12071;50.850;4.446;2024-02-26T08:43:50;14.43;;;12.93;;
23782;SDS011;12071;50.850;4.446;2024-02-26T08:46:18;12.60;;;10.85;;
23782;SDS011;12071;50.850;4.446;2024-02-26T08:48:44;14.57;;;13.07;;
23782;SDS011;12071;50.850;4.446;2024-02-26T08:51:09;13.93;;;12.10;;
23782;SDS011;12071;50.850;4.446;2024-02-26T08:53:35;13.18;;;11.85;;
23782;SDS011;12071;50.850;4.446;2024-02-26T08:56:03;13.27;;;11.98;;
23782;SDS011;12071;50.850;4.446;2024-02-26T08:58:31;12.75;;;11.55;;
23782;SDS011;12071;50.850;4.446;2024-02-26T09:00:57;13.25;;;11.88;;
23782;SDS011;12071;50.850;4.446;2024-02-26T09:03:22;12.15;;;10.95;;
23782;SDS011;12071;50.850;4.446;2024-02-26T09:05:48;13.13;;;11.60;;
23782;SDS011;12071;50.850;4.446;2024-02-26T09:08:14;12.35;;;10.65;;
23782;SDS011;12071;50.850;4.446;2024-02-26T09:10:40;13.95;;;11.85;;
23782;SDS011;12071;50.850;4.446;2024-02-26T09:13:06;13.13;;;11.82;;
23782;SDS011;12071;50.850;4.446;2024-02-26T09:15:31;12.48;;;11.18;;
23782;SDS011;12071;50.850;4.446;2024-02-26T09:17:57;12.27;;;11.07;;
23782;SDS011;12071;50.850;4.446;2024-02-26T09:20:23;13.55;;;11.98;;
23782;SDS011;12071;50.850;4.446;2024-02-26T09:22:49;13.38;;;11.65;;
23782;SDS011;12071;50.850;4.446;2024-02-26T09:25:15;13.93;;;12.20;;
23782;SDS011;12071;50.850;4.446;2024-02-26T09:27:42;12.73;;;11.43;;
23782;SDS011;12071;50.850;4.446;2024-02-26T09:30:09;13.27;;;11.65;;
23782;SDS011;12071;50.850;4.446;2024-02-26T09:32:38;14.63;;;11.50;;
23782;SDS011;12071;50.850;4.446;2024-02-26T09:35:05;14.77;;;11.77;;
23782;SDS011;12071;50.850;4.446;2024-02-26T09:37:31;12.93;;;11.63;;
23782;SDS011;12071;50.850;4.446;2024-02-26T09:39:58;11.95;;;10.75;;
23782;SDS011;12071;50.850;4.446;2024-02-26T09:42:26;12.75;;;11.45;;
23782;SDS011;12071;50.850;4.446;2024-02-26T09:44:55;12.10;;;10.90;;
23782;SDS011;12071;50.850;4.446;2024-02-26T09:47:24;12.32;;;11.05;;
23782;SDS011;12071;50.850;4.446;2024-02-26T09:49:52;19.05;;;15.00;;
23782;SDS011;12071;50.850;4.446;2024-02-26T09:52:20;13.00;;;11.05;;
23782;SDS011;12071;50.850;4.446;2024-02-26T09:54:48;12.93;;;11.55;;
23782;SDS011;12071;50.850;4.446;2024-02-26T09:57:15;13.13;;;10.77;;
23782;SDS011;12071;50.850;4.446;2024-02-26T09:59:42;12.48;;;11.20;;
23782;SDS011;12071;50.850;4.446;2024-02-26T10:02:09;12.73;;;11.38;;
23782;SDS011;12071;50.850;4.446;2024-02-26T10:04:38;11.30;;;9.70;;
23782;SDS011;12071;50.850;4.446;2024-02-26T10:07:05;11.43;;;10.23;;
23782;SDS011;12071;50.850;4.446;2024-02-26T10:09:36;11.13;;;10.02;;
23782;SDS011;12071;50.850;4.446;2024-02-26T10:12:02;11.55;;;10.05;;
23782;SDS011;12071;50.850;4.446;2024-02-26T10:14:30;12.13;;;10.82;;
23782;SDS011;12071;50.850;4.446;2024-02-26T10:16:56;10.75;;;8.82;;
23782;SDS011;12071;50.850;4.446;2024-02-26T10:19:28;10.65;;;9.55;;
23782;SDS011;12071;50.850;4.446;2024-02-26T10:21:58;9.77;;;8.80;;
23782;SDS011;12071;50.850;4.446;2024-02-26T10:24:26;11.25;;;8.50;;
23782;SDS011;12071;50.850;4.446;2024-02-26T10:26:54;9.68;;;8.77;;
23782;SDS011;12071;50.850;4.446;2024-02-26T10:29:20;11.73;;;9.50;;
23782;SDS011;12071;50.850;4.446;2024-02-26T10:31:48;9.73;;;8.73;;
23782;SDS011;12071;50.850;4.446;2024-02-26T10:34:16;8.80;;;7.90;;
23782;SDS011;12071;50.850;4.446;2024-02-26T10:36:43;9.32;;;8.40;;
23782;SDS011;12071;50.850;4.446;2024-02-26T10:39:09;8.90;;;8.00;;
23782;SDS011;12071;50.850;4.446;2024-02-26T10:41:39;8.20;;;7.40;;
23782;SDS011;12071;50.850;4.446;2024-02-26T10:44:08;9.38;;;8.48;;
23782;SDS011;12071;50.850;4.446;2024-02-26T10:46:36;8.60;;;7.63;;
23782;SDS011;12071;50.850;4.446;2024-02-26T10:49:02;8.02;;;7.10;;
23782;SDS011;12071;50.850;4.446;2024-02-26T10:51:31;8.93;;;7.20;;
23782;SDS011;12071;50.850;4.446;2024-02-26T10:54:00;7.47;;;6.78;;
23782;SDS011;12071;50.850;4.446;2024-02-26T10:56:29;8.77;;;6.45;;
23782;SDS011;12071;50.850;4.446;2024-02-26T10:58:58;7.07;;;6.38;;
23782;SDS011;12071;50.850;4.446;2024-02-26T11:01:24;7.53;;;6.10;;
23782;SDS011;12071;50.850;4.446;2024-02-26T11:03:52;7.00;;;6.07;;
23782;SDS011;12071;50.850;4.446;2024-02-26T11:06:19;6.53;;;5.90;;
23782;SDS011;12071;50.850;4.446;2024-02-26T11:08:52;7.13;;;6.38;;
23782;SDS011;12071;50.850;4.446;2024-02-26T11:11:19;6.20;;;5.68;;
23782;SDS011;12071;50.850;4.446;2024-02-26T11:13:46;6.05;;;5.25;;
23782;SDS011;12071;50.850;4.446;2024-02-26T11:16:20;6.00;;;5.50;;
23782;SDS011;12071;50.850;4.446;2024-02-26T11:18:47;6.57;;;5.63;;
23782;SDS011;12071;50.850;4.446;2024-02-26T11:21:17;5.50;;;5.00;;
23782;SDS011;12071;50.850;4.446;2024-02-26T11:23:53;5.13;;;4.72;;
23782;SDS011;12071;50.850;4.446;2024-02-26T11:26:20;5.30;;;4.78;;
23782;SDS011;12071;50.850;4.446;2024-02-26T11:28:49;5.32;;;4.80;;
23782;SDS011;12071;50.850;4.446;2024-02-26T11:31:16;4.85;;;4.43;;
23782;SDS011;12071;50.850;4.446;2024-02-26T11:33:45;4.93;;;4.53;;
23782;SDS011;12071;50.850;4.446;2024-02-26T11:36:12;5.22;;;4.57;;
23782;SDS011;12071;50.850;4.446;2024-02-26T11:38:39;6.35;;;5.28;;
23782;SDS011;12071;50.850;4.446;2024-02-26T11:41:05;5.40;;;4.90;;
23782;SDS011;12071;50.850;4.446;2024-02-26T11:43:51;4.15;;;3.75;;
23782;SDS011;12071;50.850;4.446;2024-02-26T11:46:27;5.97;;;4.40;;
23782;SDS011;12071;50.850;4.446;2024-02-26T11:48:59;4.63;;;4.22;;
23782;SDS011;12071;50.850;4.446;2024-02-26T11:51:26;4.22;;;3.83;;
23782;SDS011;12071;50.850;4.446;2024-02-26T11:53:53;4.88;;;4.40;;
23782;SDS011;12071;50.850;4.446;2024-02-26T11:56:23;4.97;;;4.43;;
23782;SDS011;12071;50.850;4.446;2024-02-26T11:59:37;4.55;;;4.15;;
23782;SDS011;12071;50.850;4.446;2024-02-26T12:02:02;4.25;;;3.92;;
23782;SDS011;12071;50.850;4.446;2024-02-26T12:04:30;4.55;;;4.13;;
23782;SDS011;12071;50.850;4.446;2024-02-26T12:07:02;5.40;;;4.40;;
23782;SDS011;12071;50.850;4.446;2024-02-26T12:11:57;4.97;;;4.47;;
23782;SDS011;12071;50.850;4.446;2024-02-26T12:14:26;5.60;;;4.25;;
23782;SDS011;12071;50.850;4.446;2024-02-26T12:16:52;4.55;;;4.15;;
23782;SDS011;12071;50.850;4.446;2024-02-26T12:19:18;5.10;;;4.60;;
23782;SDS011;12071;50.850;4.446;2024-02-26T12:21:44;4.70;;;4.30;;
23782;SDS011;12071;50.850;4.446;2024-02-26T12:24:10;4.90;;;4.50;;
23782;SDS011;12071;50.850;4.446;2024-02-26T12:26:41;5.43;;;4.93;;
23782;SDS011;12071;50.850;4.446;2024-02-26T12:29:07;4.72;;;4.32;;
23782;SDS011;12071;50.850;4.446;2024-02-26T12:31:33;5.00;;;4.60;;
23782;SDS011;12071;50.850;4.446;2024-02-26T12:34:01;6.55;;;4.43;;
23782;SDS011;12071;50.850;4.446;2024-02-26T12:36:28;6.18;;;4.60;;
23782;SDS011;12071;50.850;4.446;2024-02-26T12:38:54;4.82;;;4.32;;
23782;SDS011;12071;50.850;4.446;2024-02-26T12:41:20;4.90;;;4.25;;
23782;SDS011;12071;50.850;4.446;2024-02-26T12:43:46;4.78;;;4.38;;
23782;SDS011;12071;50.850;4.446;2024-02-26T12:46:13;4.18;;;3.78;;
23782;SDS011;12071;50.850;4.446;2024-02-26T12:48:42;5.32;;;4.10;;
23782;SDS011;12071;50.850;4.446;2024-02-26T12:51:09;4.20;;;3.80;;
23782;SDS011;12071;50.850;4.446;2024-02-26T12:53:36;5.18;;;3.72;;
23782;SDS011;12071;50.850;4.446;2024-02-26T12:56:03;4.15;;;3.75;;
23782;SDS011;12071;50.850;4.446;2024-02-26T12:58:31;5.05;;;3.85;;
23782;SDS011;12071;50.850;4.446;2024-02-26T13:00:58;4.60;;;3.83;;
23782;SDS011;12071;50.850;4.446;2024-02-26T13:03:24;4.20;;;3.85;;
23782;SDS011;12071;50.850;4.446;2024-02-26T13:05:50;5.13;;;4.00;;
23782;SDS011;12071;50.850;4.446;2024-02-26T13:08:19;5.70;;;4.60;;
23782;SDS011;12071;50.850;4.446;2024-02-26T13:10:46;5.00;;;4.50;;
23782;SDS011;12071;50.850;4.446;2024-02-26T13:13:14;5.10;;;4.70;;
23782;SDS011;12071;50.850;4.446;2024-02-26T13:15:44;6.03;;;5.22;;
23782;SDS011;12071;50.850;4.446;2024-02-26T13:18:13;5.43;;;4.93;;
23782;SDS011;12071;50.850;4.446;2024-02-26T13:20:43;8.15;;;5.05;;
23782;SDS011;12071;50.850;4.446;2024-02-26T13:23:12;5.80;;;5.25;;
23782;SDS011;12071;50.850;4.446;2024-02-26T13:25:38;5.03;;;4.55;;
23782;SDS011;12071;50.850;4.446;2024-02-26T13:30:34;6.63;;;6.03;;
23782;SDS011;12071;50.850;4.446;2024-02-26T13:33:09;6.30;;;5.70;;
23782;SDS011;12071;50.850;4.446;2024-02-26T13:35:38;6.63;;;5.85;;
23782;SDS011;12071;50.850;4.446;2024-02-26T13:38:04;7.00;;;6.32;;
23782;SDS011;12071;50.850;4.446;2024-02-26T13:40:33;6.63;;;6.03;;
23782;SDS011;12071;50.850;4.446;2024-02-26T13:43:01;8.93;;;6.93;;
23782;SDS011;12071;50.850;4.446;2024-02-26T13:45:28;7.47;;;6.78;;
23782;SDS011;12071;50.850;4.446;2024-02-26T13:47:53;10.00;;;7.38;;
23782;SDS011;12071;50.850;4.446;2024-02-26T13:50:21;7.95;;;7.07;;
23782;SDS011;12071;50.850;4.446;2024-02-26T13:52:48;8.52;;;7.63;;
23782;SDS011;12071;50.850;4.446;2024-02-26T13:55:18;9.43;;;8.07;;
23782;SDS011;12071;50.850;4.446;2024-02-26T13:57:44;10.18;;;8.32;;
23782;SDS011;12071;50.850;4.446;2024-02-26T14:00:12;9.25;;;8.05;;
23782;SDS011;12071;50.850;4.446;2024-02-26T14:02:38;10.18;;;9.05;;
23782;SDS011;12071;50.850;4.446;2024-02-26T14:05:04;10.30;;;8.63;;
23782;SDS011;12071;50.850;4.446;2024-02-26T14:07:30;10.88;;;9.05;;
23782;SDS011;12071;50.850;4.446;2024-02-26T14:09:59;11.10;;;9.45;;
23782;SDS011;12071;50.850;4.446;2024-02-26T14:12:24;9.90;;;8.68;;
23782;SDS011;12071;50.850;4.446;2024-02-26T14:14:50;11.25;;;9.70;;
23782;SDS011;12071;50.850;4.446;2024-02-26T14:17:18;10.65;;;8.52;;
23782;SDS011;12071;50.850;4.446;2024-02-26T14:19:44;11.57;;;9.32;;
23782;SDS011;12071;50.850;4.446;2024-02-26T14:22:12;11.90;;;9.10;;
23782;SDS011;12071;50.850;4.446;2024-02-26T14:24:39;12.57;;;9.20;;
23782;SDS011;12071;50.850;4.446;2024-02-26T14:27:05;12.20;;;9.65;;
23782;SDS011;12071;50.850;4.446;2024-02-26T14:29:32;12.10;;;9.60;;
23782;SDS011;12071;50.850;4.446;2024-02-26T14:31:58;11.25;;;9.50;;
23782;SDS011;12071;50.850;4.446;2024-02-26T14:34:24;12.68;;;9.95;;
23782;SDS011;12071;50.850;4.446;2024-02-26T14:36:50;11.93;;;9.65;;
23782;SDS011;12071;50.850;4.446;2024-02-26T14:39:16;12.70;;;10.30;;
23782;SDS011;12071;50.850;4.446;2024-02-26T14:41:42;12.30;;;9.82;;